createdAt,value
2019-06-01T00:03:40.190Z,4.33
2019-06-01T00:07:40.794Z,4.30
2019-06-01T00:11:45.556Z,5.07
2019-06-01T00:15:44.248Z,4.40
2019-06-01T00:19:48.242Z,4.63
2019-06-01T00:23:48.663Z,4.70
2019-06-01T00:27:51.457Z,4.27
2019-06-01T00:31:59.549Z,4.90
2019-06-01T00:35:57.488Z,4.40
2019-06-01T00:39:56.032Z,4.97
2019-06-01T00:43:57.607Z,5.00
2019-06-01T00:47:56.232Z,4.63
2019-06-01T00:51:59.317Z,5.10
2019-06-01T00:56:04.847Z,4.57
2019-06-01T01:00:07.792Z,4.97
2019-06-01T01:04:09.480Z,4.90
2019-06-01T01:08:08.090Z,4.60
2019-06-01T01:12:06.628Z,5.00
2019-06-01T01:16:08.607Z,4.80
2019-06-01T01:20:16.283Z,4.50
2019-06-01T01:24:14.747Z,5.23
2019-06-01T01:28:14.892Z,4.77
2019-06-01T01:32:15.056Z,4.80
2019-06-01T01:36:22.617Z,5.60
2019-06-01T01:40:21.096Z,6.27
2019-06-01T01:44:19.928Z,5.87
2019-06-01T01:48:18.398Z,6.17
2019-06-01T01:52:27.283Z,5.93
2019-06-01T01:56:25.788Z,6.13
2019-06-01T02:00:42.464Z,6.20
2019-06-01T02:04:40.997Z,5.90
2019-06-01T02:08:41.016Z,5.90
2019-06-01T02:12:49.548Z,6.07
2019-06-01T02:16:49.229Z,5.27
2019-06-01T02:20:47.702Z,6.57
2019-06-01T02:24:46.168Z,6.23
2019-06-01T02:28:55.203Z,5.97
2019-06-01T02:32:56.258Z,5.77
2019-06-01T02:36:58.381Z,6.13
2019-06-01T02:40:58.421Z,5.93
2019-06-01T02:44:57.422Z,6.00
2019-06-01T02:49:07.812Z,5.80
2019-06-01T02:53:08.128Z,5.83
2019-06-01T02:57:07.842Z,5.73
2019-06-01T03:01:12.060Z,6.37
2019-06-01T03:05:11.868Z,5.87
2019-06-01T03:09:27.313Z,5.77
2019-06-01T03:13:19.595Z,6.20
2019-06-01T03:17:22.621Z,5.90
2019-06-01T03:21:28.014Z,6.93
2019-06-01T03:25:28.898Z,5.83
2019-06-01T03:29:30.456Z,6.60
2019-06-01T03:33:29.072Z,6.13
2019-06-01T03:37:30.428Z,7.30
2019-06-01T03:41:35.994Z,6.50
2019-06-01T03:45:34.539Z,6.10
2019-06-01T03:54:24.989Z,6.57
2019-06-01T03:58:23.916Z,6.83
2019-06-01T04:02:32.659Z,7.23
2019-06-01T04:06:39.589Z,6.90
2019-06-01T04:10:33.019Z,7.23
2019-06-01T04:14:31.500Z,6.40
2019-06-01T04:18:29.970Z,6.43
2019-06-01T04:22:37.591Z,6.50
2019-06-01T04:26:38.279Z,6.30
2019-06-01T04:30:42.556Z,6.47
2019-06-01T04:34:41.073Z,6.57
2019-06-01T04:38:39.546Z,6.27
2019-06-01T04:42:38.004Z,6.60
2019-06-01T04:46:41.266Z,6.20
2019-06-01T04:50:39.766Z,6.37
2019-06-01T04:54:38.299Z,6.30
2019-06-01T04:58:45.061Z,6.13
2019-06-01T05:02:41.135Z,6.33
2019-06-01T05:06:47.345Z,6.40
2019-06-01T05:10:47.812Z,6.30
2019-06-01T05:14:46.278Z,5.47
2019-06-01T05:18:44.750Z,5.53
2019-06-01T05:22:49.508Z,5.67
2019-06-01T05:26:49.543Z,6.07
2019-06-01T05:30:51.251Z,5.57
2019-06-01T05:34:49.787Z,4.90
2019-06-01T05:39:06.720Z,4.83
2019-06-01T05:43:05.265Z,4.57
2019-06-01T05:47:07.416Z,4.60
2019-06-01T05:51:20.796Z,3.90
2019-06-01T05:55:19.269Z,3.87
2019-06-01T05:59:24.050Z,3.87
2019-06-01T06:03:39.307Z,3.73
2019-06-01T06:07:23.136Z,3.60
2019-06-01T06:11:26.148Z,3.97
2019-06-01T06:15:24.617Z,3.87
2019-06-01T06:19:27.361Z,3.20
2019-06-01T06:23:48.621Z,3.97
2019-06-01T06:27:47.168Z,3.20
2019-06-01T06:31:48.131Z,3.77
2019-06-01T06:35:49.613Z,3.87
2019-06-01T06:39:49.727Z,3.80
2019-06-01T06:43:54.169Z,3.43
2019-06-01T06:47:58.212Z,3.57
2019-06-01T06:52:07.661Z,3.60
2019-06-01T06:56:19.913Z,3.67
2019-06-01T07:00:20.482Z,3.70
2019-06-01T07:04:19.334Z,3.57
2019-06-01T07:08:23.805Z,3.20
2019-06-01T07:12:23.274Z,3.27
2019-06-01T07:16:35.347Z,3.27
2019-06-01T07:20:41.856Z,3.67
2019-06-01T07:24:39.784Z,3.10
2019-06-01T07:28:46.216Z,3.07
2019-06-01T07:32:50.017Z,3.03
2019-06-01T07:36:48.540Z,3.10
2019-06-01T07:40:54.274Z,2.60
2019-06-01T07:44:57.680Z,2.63
2019-06-01T07:48:58.307Z,2.63
2019-06-01T07:53:03.139Z,2.60
2019-06-01T07:57:08.114Z,2.60
2019-06-01T08:01:11.928Z,2.47
2019-06-01T08:05:19.426Z,2.23
2019-06-01T08:09:22.647Z,2.40
2019-06-01T08:13:30.395Z,2.60
2019-06-01T08:17:28.053Z,2.60
2019-06-01T08:21:28.028Z,3.03
2019-06-01T08:25:28.993Z,2.63
2019-06-01T08:29:28.839Z,2.40
2019-06-01T08:33:30.180Z,2.33
2019-06-01T08:37:29.381Z,2.77
2019-06-01T08:41:31.721Z,2.67
2019-06-01T08:45:34.242Z,2.90
2019-06-01T08:49:32.355Z,2.77
2019-06-01T08:53:41.961Z,2.60
2019-06-01T08:57:43.608Z,2.53
2019-06-01T09:01:42.136Z,2.47
2019-06-01T09:05:40.631Z,2.93
2019-06-01T09:09:39.103Z,2.40
2019-06-01T09:13:37.571Z,2.77
2019-06-01T09:17:38.349Z,2.30
2019-06-01T09:21:37.131Z,2.43
2019-06-01T09:25:39.470Z,2.77
2019-06-01T09:29:37.940Z,2.57
2019-06-01T09:33:39.411Z,2.27
2019-06-01T09:37:45.867Z,2.77
2019-06-01T09:41:49.561Z,2.53
2019-06-01T09:45:52.780Z,2.20
2019-06-01T09:54:02.584Z,2.40
2019-06-01T09:58:02.716Z,2.50
2019-06-01T10:02:01.312Z,2.60
2019-06-01T10:06:02.131Z,2.50
2019-06-01T10:10:02.346Z,2.67
2019-06-01T10:14:00.891Z,2.83
2019-06-01T10:17:59.413Z,2.50
2019-06-01T10:21:59.440Z,2.80
2019-06-01T10:26:00.758Z,2.80
2019-06-01T10:30:01.964Z,2.97
2019-06-01T10:34:04.040Z,2.43
2019-06-01T10:38:11.964Z,2.70
2019-06-01T10:42:16.696Z,2.70
2019-06-01T10:46:20.098Z,3.10
2019-06-01T10:50:19.373Z,3.17
2019-06-01T10:54:19.825Z,3.20
2019-06-01T10:58:22.327Z,3.13
2019-06-01T11:02:25.877Z,3.30
2019-06-01T11:06:40.204Z,3.40
2019-06-01T11:10:28.867Z,2.90
2019-06-01T11:14:27.429Z,2.80
2019-06-01T11:18:26.253Z,4.03
2019-06-01T11:22:26.615Z,3.13
2019-06-01T11:26:25.152Z,3.43
2019-06-01T11:30:30.120Z,3.13
2019-06-01T11:34:28.612Z,3.83
2019-06-01T11:38:29.608Z,2.70
2019-06-01T11:42:35.017Z,3.50
2019-06-01T11:46:34.718Z,3.20
2019-06-01T11:50:37.033Z,3.17
2019-06-01T11:54:41.566Z,2.87
2019-06-01T11:58:46.879Z,3.02
2019-06-01T12:02:47.734Z,2.27
2019-06-01T12:06:50.954Z,2.90
2019-06-01T12:10:48.572Z,2.83
2019-06-01T12:14:49.767Z,2.47
2019-06-01T12:18:50.893Z,2.70
2019-06-01T12:22:54.518Z,2.87
2019-06-01T12:26:54.590Z,3.58
2019-06-01T12:30:57.238Z,3.22
2019-06-01T12:35:05.609Z,2.58
2019-06-01T12:39:12.538Z,3.40
2019-06-01T12:43:19.119Z,2.60
2019-06-01T12:47:29.727Z,2.42
2019-06-01T12:51:44.398Z,2.25
2019-06-01T12:55:38.822Z,2.40
2019-06-01T12:59:37.418Z,2.58
2019-06-01T13:03:39.252Z,2.70
2019-06-01T13:07:50.872Z,2.20
2019-06-01T13:11:45.203Z,2.58
2019-06-01T13:15:45.188Z,2.50
2019-06-01T13:19:47.260Z,2.20
2019-06-01T13:23:47.499Z,2.00
2019-06-01T13:27:50.484Z,2.60
2019-06-01T13:31:53.645Z,2.30
2019-06-01T13:35:53.913Z,2.65
2019-06-01T13:39:58.270Z,2.05
2019-06-01T13:43:56.415Z,2.30
2019-06-01T13:48:01.711Z,2.30
2019-06-01T13:52:04.203Z,1.95
2019-06-01T13:56:02.750Z,2.10
2019-06-01T14:00:07.081Z,2.17
2019-06-01T14:04:06.955Z,2.20
2019-06-01T14:08:27.593Z,2.22
2019-06-01T14:12:14.405Z,2.50
2019-06-01T14:16:16.774Z,1.80
2019-06-01T14:20:17.146Z,1.90
2019-06-01T14:24:17.317Z,1.77
2019-06-01T14:28:24.893Z,1.72
2019-06-01T14:32:23.460Z,1.75
2019-06-01T14:36:22.129Z,1.82
2019-06-01T14:44:49.220Z,1.70
2019-06-01T14:48:49.272Z,1.62
2019-06-01T14:52:49.599Z,1.87
2019-06-01T14:56:53.795Z,1.80
2019-06-01T15:01:05.885Z,1.62
2019-06-01T15:05:08.985Z,2.10
2019-06-01T15:09:18.854Z,2.05
2019-06-01T15:13:14.534Z,1.70
2019-06-01T15:17:13.082Z,1.60
2019-06-01T15:21:12.543Z,1.55
2019-06-01T15:25:11.578Z,1.65
2019-06-01T15:29:10.407Z,1.92
2019-06-01T15:37:51.208Z,1.50
2019-06-01T15:41:59.114Z,1.90
2019-06-01T15:46:02.064Z,1.50
2019-06-01T15:50:16.531Z,1.70
2019-06-01T15:54:17.713Z,1.50
2019-06-01T15:58:20.442Z,1.60
2019-06-01T16:02:18.942Z,1.50
2019-06-01T16:06:21.318Z,1.70
2019-06-01T16:10:19.931Z,1.80
2019-06-01T16:14:21.521Z,1.45
2019-06-01T16:18:31.277Z,1.60
2019-06-01T16:22:31.542Z,1.72
2019-06-01T16:26:32.396Z,1.77
2019-06-01T16:30:37.424Z,1.85
2019-06-01T16:34:42.213Z,1.50
2019-06-01T16:39:14.006Z,1.82
2019-06-01T16:42:59.573Z,5.20
2019-06-01T16:46:58.119Z,1.70
2019-06-01T16:50:59.547Z,1.50
2019-06-01T16:55:21.531Z,1.67
2019-06-01T16:59:26.326Z,1.87
2019-06-01T17:03:40.211Z,1.70
2019-06-01T17:07:43.962Z,1.70
2019-06-01T17:11:54.917Z,2.12
2019-06-01T17:16:08.643Z,1.70
2019-06-01T17:20:39.434Z,1.65
2019-06-01T17:24:37.897Z,1.92
2019-06-01T17:28:36.431Z,1.50
2019-06-01T17:32:36.509Z,1.70
2019-06-01T17:36:35.063Z,2.75
2019-06-01T17:40:38.441Z,1.98
2019-06-01T17:44:52.818Z,2.08
2019-06-01T17:48:51.633Z,1.80
2019-06-01T17:52:54.617Z,1.60
2019-06-01T17:56:53.495Z,1.80
2019-06-01T18:01:09.929Z,2.17
2019-06-01T18:05:08.148Z,2.00
2019-06-01T18:09:10.333Z,1.95
2019-06-01T18:13:41.954Z,2.00
2019-06-01T18:17:33.014Z,2.05
2019-06-01T18:21:34.587Z,2.25
2019-06-01T18:25:34.341Z,2.20
2019-06-01T18:29:48.328Z,1.82
2019-06-01T18:33:44.594Z,2.50
2019-06-01T18:37:42.624Z,2.83
2019-06-01T18:41:43.055Z,3.22
2019-06-01T18:45:48.878Z,2.33
2019-06-01T18:49:49.111Z,1.90
2019-06-01T18:58:08.761Z,1.80
2019-06-01T19:02:12.574Z,2.80
2019-06-01T19:06:11.564Z,2.40
2019-06-01T19:10:15.736Z,2.37
2019-06-01T19:14:14.375Z,2.80
2019-06-01T19:18:16.976Z,2.77
2019-06-01T19:22:16.785Z,2.80
2019-06-01T19:26:16.534Z,2.80
2019-06-01T19:30:22.532Z,2.50
2019-06-01T19:34:21.325Z,2.60
2019-06-01T19:38:20.963Z,2.80
2019-06-01T19:42:20.424Z,2.77
2019-06-01T19:46:18.971Z,2.90
2019-06-01T19:50:21.190Z,2.70
2019-06-01T19:54:22.143Z,2.70
2019-06-01T19:58:28.773Z,2.80
2019-06-01T20:02:37.443Z,2.83
2019-06-01T20:06:35.391Z,2.43
2019-06-01T20:10:39.222Z,3.40
2019-06-01T20:14:38.825Z,2.80
2019-06-01T20:18:37.306Z,2.80
2019-06-01T20:22:35.842Z,2.83
2019-06-01T20:26:44.578Z,3.30
2019-06-01T20:30:38.214Z,3.00
2019-06-01T20:34:41.125Z,3.40
2019-06-01T20:38:39.608Z,3.20
2019-06-01T20:42:57.591Z,3.40
2019-06-01T20:46:53.471Z,3.30
2019-06-01T20:51:02.801Z,3.10
2019-06-01T20:55:00.972Z,3.60
2019-06-01T20:59:11.014Z,3.83
2019-06-01T21:03:13.730Z,3.43
2019-06-01T21:07:22.520Z,3.60
2019-06-01T21:11:22.246Z,4.37
2019-06-01T21:15:21.396Z,3.20
2019-06-01T21:19:20.423Z,3.50
2019-06-01T21:23:19.006Z,3.83
2019-06-01T21:27:18.454Z,3.73
2019-06-01T21:35:34.811Z,3.57
2019-06-01T21:39:36.460Z,3.60
2019-06-01T21:43:35.588Z,4.03
2019-06-01T21:47:53.776Z,4.00
2019-06-01T21:51:58.120Z,3.57
2019-06-01T21:55:59.157Z,4.30
2019-06-01T22:00:02.084Z,3.73
2019-06-01T22:04:01.655Z,4.00
2019-06-01T22:08:02.617Z,3.53
2019-06-01T22:12:01.278Z,3.87
2019-06-01T22:16:03.078Z,3.90
2019-06-01T22:20:01.636Z,3.80
2019-06-01T22:24:04.676Z,3.80
2019-06-01T22:28:03.220Z,4.63
2019-06-01T22:32:04.841Z,4.17
2019-06-01T22:36:03.344Z,3.90
2019-06-01T22:40:01.796Z,4.63
2019-06-01T22:44:00.339Z,3.83
2019-06-01T22:47:58.863Z,4.00
2019-06-01T22:51:57.448Z,3.90
2019-06-01T22:56:00.928Z,4.13
2019-06-01T22:59:59.453Z,4.10
2019-06-01T23:03:57.938Z,3.83
2019-06-01T23:07:56.401Z,4.00
2019-06-01T23:11:54.853Z,4.53
2019-06-01T23:15:53.398Z,4.37
2019-06-01T23:19:57.597Z,3.97
2019-06-01T23:23:56.112Z,4.20
2019-06-01T23:27:56.710Z,4.33
2019-06-01T23:31:55.269Z,4.50
2019-06-01T23:35:53.902Z,4.17
2019-06-01T23:39:52.368Z,4.30
2019-06-01T23:43:50.827Z,4.77
2019-06-01T23:47:49.295Z,4.53
2019-06-01T23:51:49.044Z,3.73
2019-06-01T23:55:47.519Z,4.07
2019-06-01T23:59:49.307Z,4.50
